sensor_id;sensor_type;location;lat;lon;timestamp;temperature;humidity
80695;DHT22;70059;42.702;23.312;2023-07-24T00:01:09;23.00;54.00
80695;DHT22;70059;42.702;23.312;2023-07-24T00:03:35;23.00;53.10
80695;DHT22;70059;42.702;23.312;2023-07-24T00:06:01;23.00;53.10
80695;DHT22;70059;42.702;23.312;2023-07-24T00:08:27;23.00;53.40
80695;DHT22;70059;42.702;23.312;2023-07-24T00:10:53;22.90;53.30
80695;DHT22;70059;42.702;23.312;2023-07-24T00:13:18;22.90;53.70
80695;DHT22;70059;42.702;23.312;2023-07-24T00:15:44;22.80;53.50
80695;DHT22;70059;42.702;23.312;2023-07-24T00:18:10;22.80;53.50
80695;DHT22;70059;42.702;23.312;2023-07-24T00:20:35;22.80;54.00
80695;DHT22;70059;42.702;23.312;2023-07-24T00:23:01;22.80;53.80
80695;DHT22;70059;42.702;23.312;2023-07-24T00:25:27;22.80;53.80
80695;DHT22;70059;42.702;23.312;2023-07-24T00:27:53;22.80;53.90
80695;DHT22;70059;42.702;23.312;2023-07-24T00:30:19;22.80;54.90
80695;DHT22;70059;42.702;23.312;2023-07-24T00:32:44;22.80;53.80
80695;DHT22;70059;42.702;23.312;2023-07-24T00:35:10;22.80;54.10
80695;DHT22;70059;42.702;23.312;2023-07-24T00:37:36;22.80;53.90
80695;DHT22;70059;42.702;23.312;2023-07-24T00:40:02;22.70;54.00
80695;DHT22;70059;42.702;23.312;2023-07-24T00:42:29;22.70;53.90
80695;DHT22;70059;42.702;23.312;2023-07-24T00:44:55;22.60;53.50
80695;DHT22;70059;42.702;23.312;2023-07-24T00:47:21;22.70;53.30
80695;DHT22;70059;42.702;23.312;2023-07-24T00:49:48;22.60;52.90
80695;DHT22;70059;42.702;23.312;2023-07-24T00:52:14;22.60;53.00
80695;DHT22;70059;42.702;23.312;2023-07-24T00:54:40;22.60;52.60
80695;DHT22;70059;42.702;23.312;2023-07-24T00:57:06;22.60;52.70
80695;DHT22;70059;42.702;23.312;2023-07-24T00:59:32;22.70;52.20
80695;DHT22;70059;42.702;23.312;2023-07-24T01:01:58;22.70;51.90
80695;DHT22;70059;42.702;23.312;2023-07-24T01:04:24;22.60;51.90
80695;DHT22;70059;42.702;23.312;2023-07-24T01:06:50;22.50;51.90
80695;DHT22;70059;42.702;23.312;2023-07-24T01:09:15;22.60;51.80
80695;DHT22;70059;42.702;23.312;2023-07-24T01:11:46;22.60;51.70
80695;DHT22;70059;42.702;23.312;2023-07-24T01:16:46;22.40;52.30
80695;DHT22;70059;42.702;23.312;2023-07-24T01:21:58;22.40;52.50
80695;DHT22;70059;42.702;23.312;2023-07-24T01:24:36;22.30;52.40
80695;DHT22;70059;42.702;23.312;2023-07-24T01:27:02;22.40;52.40
80695;DHT22;70059;42.702;23.312;2023-07-24T01:29:28;22.40;52.50
80695;DHT22;70059;42.702;23.312;2023-07-24T01:31:54;22.30;52.60
80695;DHT22;70059;42.702;23.312;2023-07-24T01:34:19;22.20;53.00
80695;DHT22;70059;42.702;23.312;2023-07-24T01:36:45;22.20;52.60
80695;DHT22;70059;42.702;23.312;2023-07-24T01:39:11;22.20;52.30
80695;DHT22;70059;42.702;23.312;2023-07-24T01:41:37;22.00;52.70
80695;DHT22;70059;42.702;23.312;2023-07-24T01:44:05;22.00;53.10
80695;DHT22;70059;42.702;23.312;2023-07-24T01:46:32;22.00;53.50
80695;DHT22;70059;42.702;23.312;2023-07-24T01:48:58;22.00;53.60
80695;DHT22;70059;42.702;23.312;2023-07-24T01:51:23;22.20;52.40
80695;DHT22;70059;42.702;23.312;2023-07-24T01:53:49;22.30;51.90
80695;DHT22;70059;42.702;23.312;2023-07-24T01:56:15;22.10;51.90
80695;DHT22;70059;42.702;23.312;2023-07-24T01:58:40;22.00;53.30
80695;DHT22;70059;42.702;23.312;2023-07-24T02:01:06;21.90;53.40
80695;DHT22;70059;42.702;23.312;2023-07-24T02:03:31;21.80;53.80
80695;DHT22;70059;42.702;23.312;2023-07-24T02:05:57;21.70;54.00
80695;DHT22;70059;42.702;23.312;2023-07-24T02:08:23;21.70;54.20
80695;DHT22;70059;42.702;23.312;2023-07-24T02:10:49;21.70;53.80
80695;DHT22;70059;42.702;23.312;2023-07-24T02:13:16;21.70;54.20
80695;DHT22;70059;42.702;23.312;2023-07-24T02:15:41;21.80;53.70
80695;DHT22;70059;42.702;23.312;2023-07-24T02:18:07;21.90;53.40
80695;DHT22;70059;42.702;23.312;2023-07-24T02:20:33;21.80;54.30
80695;DHT22;70059;42.702;23.312;2023-07-24T02:22:58;21.90;54.00
80695;DHT22;70059;42.702;23.312;2023-07-24T02:25:24;22.00;53.30
80695;DHT22;70059;42.702;23.312;2023-07-24T02:27:49;21.80;53.40
80695;DHT22;70059;42.702;23.312;2023-07-24T02:30:15;21.80;53.80
80695;DHT22;70059;42.702;23.312;2023-07-24T02:32:41;21.60;54.10
80695;DHT22;70059;42.702;23.312;2023-07-24T02:35:07;21.50;54.70
80695;DHT22;70059;42.702;23.312;2023-07-24T02:37:32;21.60;54.50
80695;DHT22;70059;42.702;23.312;2023-07-24T02:39:58;21.60;54.40
80695;DHT22;70059;42.702;23.312;2023-07-24T02:42:24;21.60;54.40
80695;DHT22;70059;42.702;23.312;2023-07-24T02:44:49;21.50;54.70
80695;DHT22;70059;42.702;23.312;2023-07-24T02:47:15;21.50;54.70
80695;DHT22;70059;42.702;23.312;2023-07-24T02:49:41;21.60;54.50
80695;DHT22;70059;42.702;23.312;2023-07-24T02:52:06;21.80;54.10
80695;DHT22;70059;42.702;23.312;2023-07-24T02:54:32;21.80;53.90
80695;DHT22;70059;42.702;23.312;2023-07-24T02:56:58;21.70;54.50
80695;DHT22;70059;42.702;23.312;2023-07-24T02:59:23;21.70;56.40
80695;DHT22;70059;42.702;23.312;2023-07-24T03:01:49;21.60;56.10
80695;DHT22;70059;42.702;23.312;2023-07-24T03:04:14;21.60;56.30
80695;DHT22;70059;42.702;23.312;2023-07-24T03:06:40;21.60;55.90
80695;DHT22;70059;42.702;23.312;2023-07-24T03:09:06;21.60;56.70
80695;DHT22;70059;42.702;23.312;2023-07-24T03:11:32;21.50;55.80
80695;DHT22;70059;42.702;23.312;2023-07-24T03:13:57;21.50;55.90
80695;DHT22;70059;42.702;23.312;2023-07-24T03:16:24;21.50;56.20
80695;DHT22;70059;42.702;23.312;2023-07-24T03:18:49;21.50;56.10
80695;DHT22;70059;42.702;23.312;2023-07-24T03:21:15;21.40;55.90
80695;DHT22;70059;42.702;23.312;2023-07-24T03:23:41;21.30;57.10
80695;DHT22;70059;42.702;23.312;2023-07-24T03:26:07;21.20;56.50
80695;DHT22;70059;42.702;23.312;2023-07-24T03:28:32;21.20;57.10
80695;DHT22;70059;42.702;23.312;2023-07-24T03:30:58;21.20;57.40
80695;DHT22;70059;42.702;23.312;2023-07-24T03:33:24;21.20;56.10
80695;DHT22;70059;42.702;23.312;2023-07-24T03:35:50;21.30;55.90
80695;DHT22;70059;42.702;23.312;2023-07-24T03:38:15;21.30;55.90
80695;DHT22;70059;42.702;23.312;2023-07-24T03:40:41;21.40;55.60
80695;DHT22;70059;42.702;23.312;2023-07-24T03:43:07;21.30;55.90
80695;DHT22;70059;42.702;23.312;2023-07-24T03:45:32;21.30;55.80
80695;DHT22;70059;42.702;23.312;2023-07-24T03:47:58;21.10;56.70
80695;DHT22;70059;42.702;23.312;2023-07-24T03:50:23;21.20;56.40
80695;DHT22;70059;42.702;23.312;2023-07-24T03:52:49;21.30;56.30
80695;DHT22;70059;42.702;23.312;2023-07-24T03:55:15;21.30;56.10
80695;DHT22;70059;42.702;23.312;2023-07-24T03:57:40;21.30;55.80
80695;DHT22;70059;42.702;23.312;2023-07-24T04:00:06;21.20;56.50
80695;DHT22;70059;42.702;23.312;2023-07-24T04:02:32;21.30;55.80
80695;DHT22;70059;42.702;23.312;2023-07-24T04:04:58;21.30;56.00
80695;DHT22;70059;42.702;23.312;2023-07-24T04:07:23;21.30;55.90
80695;DHT22;70059;42.702;23.312;2023-07-24T04:09:49;21.20;56.10
80695;DHT22;70059;42.702;23.312;2023-07-24T04:12:15;21.20;56.30
80695;DHT22;70059;42.702;23.312;2023-07-24T04:14:40;21.20;56.30
80695;DHT22;70059;42.702;23.312;2023-07-24T04:17:06;21.20;56.50
80695;DHT22;70059;42.702;23.312;2023-07-24T04:19:32;21.10;56.50
80695;DHT22;70059;42.702;23.312;2023-07-24T04:21:57;21.30;56.90
80695;DHT22;70059;42.702;23.312;2023-07-24T04:24:23;21.30;55.90
80695;DHT22;70059;42.702;23.312;2023-07-24T04:26:49;21.30;56.20
80695;DHT22;70059;42.702;23.312;2023-07-24T04:29:14;21.30;56.20
80695;DHT22;70059;42.702;23.312;2023-07-24T04:31:40;21.20;56.50
80695;DHT22;70059;42.702;23.312;2023-07-24T04:34:06;21.30;57.20
80695;DHT22;70059;42.702;23.312;2023-07-24T04:36:31;21.40;56.90
80695;DHT22;70059;42.702;23.312;2023-07-24T04:39:00;21.50;56.10
80695;DHT22;70059;42.702;23.312;2023-07-24T04:41:25;21.50;55.90
80695;DHT22;70059;42.702;23.312;2023-07-24T04:43:51;21.60;55.70
80695;DHT22;70059;42.702;23.312;2023-07-24T04:46:16;21.60;54.90
80695;DHT22;70059;42.702;23.312;2023-07-24T04:48:42;21.70;54.20
80695;DHT22;70059;42.702;23.312;2023-07-24T04:51:08;21.70;54.10
80695;DHT22;70059;42.702;23.312;2023-07-24T04:53:33;21.60;54.00
80695;DHT22;70059;42.702;23.312;2023-07-24T04:55:59;21.70;54.50
80695;DHT22;70059;42.702;23.312;2023-07-24T04:58:25;21.80;53.90
80695;DHT22;70059;42.702;23.312;2023-07-24T05:00:51;21.70;54.50
80695;DHT22;70059;42.702;23.312;2023-07-24T05:03:16;21.70;55.40
80695;DHT22;70059;42.702;23.312;2023-07-24T05:05:42;21.90;55.20
80695;DHT22;70059;42.702;23.312;2023-07-24T05:08:08;21.90;54.70
80695;DHT22;70059;42.702;23.312;2023-07-24T05:10:37;21.90;54.70
80695;DHT22;70059;42.702;23.312;2023-07-24T05:13:02;22.00;54.80
80695;DHT22;70059;42.702;23.312;2023-07-24T05:15:29;22.10;55.10
80695;DHT22;70059;42.702;23.312;2023-07-24T05:17:54;22.30;54.10
80695;DHT22;70059;42.702;23.312;2023-07-24T05:20:20;22.40;54.00
80695;DHT22;70059;42.702;23.312;2023-07-24T05:22:45;22.40;53.20
80695;DHT22;70059;42.702;23.312;2023-07-24T05:25:11;22.50;53.30
80695;DHT22;70059;42.702;23.312;2023-07-24T05:27:37;22.50;53.40
80695;DHT22;70059;42.702;23.312;2023-07-24T05:30:03;22.60;53.20
80695;DHT22;70059;42.702;23.312;2023-07-24T05:32:29;22.70;53.00
80695;DHT22;70059;42.702;23.312;2023-07-24T05:34:55;22.70;52.20
80695;DHT22;70059;42.702;23.312;2023-07-24T05:37:20;22.70;52.80
80695;DHT22;70059;42.702;23.312;2023-07-24T05:39:46;22.60;53.20
80695;DHT22;70059;42.702;23.312;2023-07-24T05:42:12;22.70;53.20
80695;DHT22;70059;42.702;23.312;2023-07-24T05:44:38;22.80;52.90
80695;DHT22;70059;42.702;23.312;2023-07-24T05:47:03;22.90;52.20
80695;DHT22;70059;42.702;23.312;2023-07-24T05:49:29;23.00;52.60
80695;DHT22;70059;42.702;23.312;2023-07-24T05:51:55;23.10;51.00
80695;DHT22;70059;42.702;23.312;2023-07-24T05:54:22;23.10;51.30
80695;DHT22;70059;42.702;23.312;2023-07-24T05:56:47;23.20;51.40
80695;DHT22;70059;42.702;23.312;2023-07-24T05:59:13;23.00;50.80
80695;DHT22;70059;42.702;23.312;2023-07-24T06:01:39;23.00;50.90
80695;DHT22;70059;42.702;23.312;2023-07-24T06:04:04;23.10;51.30
80695;DHT22;70059;42.702;23.312;2023-07-24T06:06:32;23.20;51.60
80695;DHT22;70059;42.702;23.312;2023-07-24T06:08:58;23.40;51.10
80695;DHT22;70059;42.702;23.312;2023-07-24T06:11:24;23.50;50.00
80695;DHT22;70059;42.702;23.312;2023-07-24T06:13:51;23.50;49.80
80695;DHT22;70059;42.702;23.312;2023-07-24T06:16:18;23.50;49.30
80695;DHT22;70059;42.702;23.312;2023-07-24T06:18:43;23.60;49.60
80695;DHT22;70059;42.702;23.312;2023-07-24T06:21:09;23.60;49.30
80695;DHT22;70059;42.702;23.312;2023-07-24T06:23:35;23.60;48.80
80695;DHT22;70059;42.702;23.312;2023-07-24T06:26:01;23.90;48.00
80695;DHT22;70059;42.702;23.312;2023-07-24T06:28:27;23.90;47.70
80695;DHT22;70059;42.702;23.312;2023-07-24T06:30:54;24.20;47.10
80695;DHT22;70059;42.702;23.312;2023-07-24T06:33:20;24.30;46.60
80695;DHT22;70059;42.702;23.312;2023-07-24T06:35:48;24.40;47.00
80695;DHT22;70059;42.702;23.312;2023-07-24T06:38:14;24.40;46.40
80695;DHT22;70059;42.702;23.312;2023-07-24T06:40:40;24.60;46.80
80695;DHT22;70059;42.702;23.312;2023-07-24T06:43:05;24.90;46.10
80695;DHT22;70059;42.702;23.312;2023-07-24T06:45:31;24.90;46.10
80695;DHT22;70059;42.702;23.312;2023-07-24T06:47:57;25.00;45.30
80695;DHT22;70059;42.702;23.312;2023-07-24T06:50:22;25.10;44.80
80695;DHT22;70059;42.702;23.312;2023-07-24T06:52:48;25.20;45.20
80695;DHT22;70059;42.702;23.312;2023-07-24T06:55:16;25.40;44.40
80695;DHT22;70059;42.702;23.312;2023-07-24T06:57:42;25.40;44.20
80695;DHT22;70059;42.702;23.312;2023-07-24T07:00:08;25.60;42.90
80695;DHT22;70059;42.702;23.312;2023-07-24T07:02:37;25.50;42.70
80695;DHT22;70059;42.702;23.312;2023-07-24T07:05:03;25.60;42.90
80695;DHT22;70059;42.702;23.312;2023-07-24T07:07:29;25.60;43.50
80695;DHT22;70059;42.702;23.312;2023-07-24T07:09:55;25.70;43.90
80695;DHT22;70059;42.702;23.312;2023-07-24T07:12:20;26.00;42.60
80695;DHT22;70059;42.702;23.312;2023-07-24T07:14:46;26.00;42.10
80695;DHT22;70059;42.702;23.312;2023-07-24T07:17:12;26.10;42.30
80695;DHT22;70059;42.702;23.312;2023-07-24T07:19:37;26.10;41.70
80695;DHT22;70059;42.702;23.312;2023-07-24T07:22:03;26.20;41.80
80695;DHT22;70059;42.702;23.312;2023-07-24T07:24:29;26.50;40.40
80695;DHT22;70059;42.702;23.312;2023-07-24T07:26:54;26.50;40.10
80695;DHT22;70059;42.702;23.312;2023-07-24T07:29:20;26.50;40.10
80695;DHT22;70059;42.702;23.312;2023-07-24T07:31:46;26.60;41.80
80695;DHT22;70059;42.702;23.312;2023-07-24T07:34:11;26.70;40.00
80695;DHT22;70059;42.702;23.312;2023-07-24T07:36:37;26.90;39.40
80695;DHT22;70059;42.702;23.312;2023-07-24T07:39:06;27.40;38.10
80695;DHT22;70059;42.702;23.312;2023-07-24T07:41:32;28.00;37.10
80695;DHT22;70059;42.702;23.312;2023-07-24T07:43:58;28.60;35.60
80695;DHT22;70059;42.702;23.312;2023-07-24T07:46:23;29.90;32.80
80695;DHT22;70059;42.702;23.312;2023-07-24T07:48:49;31.50;29.60
80695;DHT22;70059;42.702;23.312;2023-07-24T07:51:15;32.80;27.00
80695;DHT22;70059;42.702;23.312;2023-07-24T07:53:40;34.40;24.90
80695;DHT22;70059;42.702;23.312;2023-07-24T07:56:06;35.40;23.10
80695;DHT22;70059;42.702;23.312;2023-07-24T07:58:32;36.90;20.60
80695;DHT22;70059;42.702;23.312;2023-07-24T08:00:58;37.40;20.20
80695;DHT22;70059;42.702;23.312;2023-07-24T08:03:26;38.30;19.70
80695;DHT22;70059;42.702;23.312;2023-07-24T08:05:58;39.30;19.40
80695;DHT22;70059;42.702;23.312;2023-07-24T08:08:24;39.50;17.40
80695;DHT22;70059;42.702;23.312;2023-07-24T08:10:49;40.20;16.80
80695;DHT22;70059;42.702;23.312;2023-07-24T08:13:16;41.40;15.60
80695;DHT22;70059;42.702;23.312;2023-07-24T08:15:42;41.20;14.80
80695;DHT22;70059;42.702;23.312;2023-07-24T08:18:07;40.50;15.90
80695;DHT22;70059;42.702;23.312;2023-07-24T08:20:35;41.60;15.40
80695;DHT22;70059;42.702;23.312;2023-07-24T08:23:02;43.00;13.60
80695;DHT22;70059;42.702;23.312;2023-07-24T08:25:28;43.40;13.30
80695;DHT22;70059;42.702;23.312;2023-07-24T08:27:53;44.10;12.70
80695;DHT22;70059;42.702;23.312;2023-07-24T08:30:19;45.10;11.10
80695;DHT22;70059;42.702;23.312;2023-07-24T08:32:45;45.50;10.80
80695;DHT22;70059;42.702;23.312;2023-07-24T08:35:10;45.10;10.80
80695;DHT22;70059;42.702;23.312;2023-07-24T08:37:36;44.70;11.00
80695;DHT22;70059;42.702;23.312;2023-07-24T08:40:02;45.50;10.50
80695;DHT22;70059;42.702;23.312;2023-07-24T08:42:28;46.30;9.60
80695;DHT22;70059;42.702;23.312;2023-07-24T08:44:54;46.30;9.50
80695;DHT22;70059;42.702;23.312;2023-07-24T08:47:21;46.30;9.40
80695;DHT22;70059;42.702;23.312;2023-07-24T08:49:48;46.90;9.30
80695;DHT22;70059;42.702;23.312;2023-07-24T08:52:14;47.90;8.40
80695;DHT22;70059;42.702;23.312;2023-07-24T08:54:40;48.40;8.00
80695;DHT22;70059;42.702;23.312;2023-07-24T08:57:06;49.40;6.80
80695;DHT22;70059;42.702;23.312;2023-07-24T08:59:33;48.70;7.30
80695;DHT22;70059;42.702;23.312;2023-07-24T09:01:59;48.90;7.50
80695;DHT22;70059;42.702;23.312;2023-07-24T09:04:25;49.80;6.90
80695;DHT22;70059;42.702;23.312;2023-07-24T09:06:51;50.60;6.60
80695;DHT22;70059;42.702;23.312;2023-07-24T09:09:16;50.80;6.00
80695;DHT22;70059;42.702;23.312;2023-07-24T09:11:50;51.40;5.30
80695;DHT22;70059;42.702;23.312;2023-07-24T09:14:23;51.70;4.80
80695;DHT22;70059;42.702;23.312;2023-07-24T09:16:49;51.40;5.50
80695;DHT22;70059;42.702;23.312;2023-07-24T09:19:19;52.20;5.70
80695;DHT22;70059;42.702;23.312;2023-07-24T09:21:45;51.20;5.00
80695;DHT22;70059;42.702;23.312;2023-07-24T09:24:12;50.10;5.80
80695;DHT22;70059;42.702;23.312;2023-07-24T09:26:52;50.20;5.70
80695;DHT22;70059;42.702;23.312;2023-07-24T09:29:18;50.80;5.20
80695;DHT22;70059;42.702;23.312;2023-07-24T09:31:44;51.60;5.20
80695;DHT22;70059;42.702;23.312;2023-07-24T09:34:17;52.60;4.40
80695;DHT22;70059;42.702;23.312;2023-07-24T09:36:45;53.20;3.90
80695;DHT22;70059;42.702;23.312;2023-07-24T09:39:11;53.40;3.80
80695;DHT22;70059;42.702;23.312;2023-07-24T09:41:38;53.90;3.50
80695;DHT22;70059;42.702;23.312;2023-07-24T09:44:05;54.10;3.80
80695;DHT22;70059;42.702;23.312;2023-07-24T09:46:30;54.10;2.80
80695;DHT22;70059;42.702;23.312;2023-07-24T09:48:57;54.50;2.70
80695;DHT22;70059;42.702;23.312;2023-07-24T09:51:23;53.70;2.90
80695;DHT22;70059;42.702;23.312;2023-07-24T09:54:00;54.30;2.60
80695;DHT22;70059;42.702;23.312;2023-07-24T09:56:30;54.50;2.40
80695;DHT22;70059;42.702;23.312;2023-07-24T09:58:58;54.10;3.00
80695;DHT22;70059;42.702;23.312;2023-07-24T10:01:25;54.70;2.50
80695;DHT22;70059;42.702;23.312;2023-07-24T10:03:51;55.20;2.50
80695;DHT22;70059;42.702;23.312;2023-07-24T10:06:17;55.30;2.30
80695;DHT22;70059;42.702;23.312;2023-07-24T10:08:44;55.00;2.80
80695;DHT22;70059;42.702;23.312;2023-07-24T10:11:12;55.20;2.20
80695;DHT22;70059;42.702;23.312;2023-07-24T10:13:38;55.20;2.30
80695;DHT22;70059;42.702;23.312;2023-07-24T10:16:05;55.10;2.00
80695;DHT22;70059;42.702;23.312;2023-07-24T10:18:41;55.50;2.80
80695;DHT22;70059;42.702;23.312;2023-07-24T10:21:09;55.40;1.90
80695;DHT22;70059;42.702;23.312;2023-07-24T10:23:45;55.20;1.90
80695;DHT22;70059;42.702;23.312;2023-07-24T10:26:14;55.10;2.30
80695;DHT22;70059;42.702;23.312;2023-07-24T10:28:41;55.00;2.00
80695;DHT22;70059;42.702;23.312;2023-07-24T10:31:18;55.10;2.80
80695;DHT22;70059;42.702;23.312;2023-07-24T10:33:45;55.20;2.30
80695;DHT22;70059;42.702;23.312;2023-07-24T10:36:12;55.40;2.20
80695;DHT22;70059;42.702;23.312;2023-07-24T10:38:43;55.40;1.80
80695;DHT22;70059;42.702;23.312;2023-07-24T10:41:10;55.60;2.20
80695;DHT22;70059;42.702;23.312;2023-07-24T10:43:48;55.60;2.20
80695;DHT22;70059;42.702;23.312;2023-07-24T10:46:15;56.00;2.30
80695;DHT22;70059;42.702;23.312;2023-07-24T10:48:49;55.40;2.50
80695;DHT22;70059;42.702;23.312;2023-07-24T10:51:16;53.60;3.30
80695;DHT22;70059;42.702;23.312;2023-07-24T10:53:46;50.30;5.80
80695;DHT22;70059;42.702;23.312;2023-07-24T10:56:12;49.80;6.50
80695;DHT22;70059;42.702;23.312;2023-07-24T10:58:38;48.80;6.30
80695;DHT22;70059;42.702;23.312;2023-07-24T11:01:05;49.60;6.20
80695;DHT22;70059;42.702;23.312;2023-07-24T11:03:31;50.50;5.50
80695;DHT22;70059;42.702;23.312;2023-07-24T11:06:00;51.50;5.00
80695;DHT22;70059;42.702;23.312;2023-07-24T11:08:27;51.90;5.00
80695;DHT22;70059;42.702;23.312;2023-07-24T11:10:55;52.20;4.60
80695;DHT22;70059;42.702;23.312;2023-07-24T11:13:26;52.60;4.50
80695;DHT22;70059;42.702;23.312;2023-07-24T11:15:53;53.10;4.00
80695;DHT22;70059;42.702;23.312;2023-07-24T11:18:20;53.00;3.90
80695;DHT22;70059;42.702;23.312;2023-07-24T11:20:55;50.80;4.70
80695;DHT22;70059;42.702;23.312;2023-07-24T11:23:25;50.00;5.60
80695;DHT22;70059;42.702;23.312;2023-07-24T11:25:52;51.00;4.60
80695;DHT22;70059;42.702;23.312;2023-07-24T11:28:18;51.50;4.50
80695;DHT22;70059;42.702;23.312;2023-07-24T11:30:44;51.00;4.50
80695;DHT22;70059;42.702;23.312;2023-07-24T11:33:11;49.80;6.00
80695;DHT22;70059;42.702;23.312;2023-07-24T11:35:37;47.90;7.50
80695;DHT22;70059;42.702;23.312;2023-07-24T11:38:05;47.40;8.40
80695;DHT22;70059;42.702;23.312;2023-07-24T11:40:38;48.10;7.70
80695;DHT22;70059;42.702;23.312;2023-07-24T11:43:04;49.00;6.40
80695;DHT22;70059;42.702;23.312;2023-07-24T11:45:31;49.50;5.90
80695;DHT22;70059;42.702;23.312;2023-07-24T11:48:09;50.30;5.80
80695;DHT22;70059;42.702;23.312;2023-07-24T11:50:43;51.40;5.60
80695;DHT22;70059;42.702;23.312;2023-07-24T11:53:22;51.80;4.60
80695;DHT22;70059;42.702;23.312;2023-07-24T11:55:48;51.70;4.90
80695;DHT22;70059;42.702;23.312;2023-07-24T11:58:15;51.60;5.00
80695;DHT22;70059;42.702;23.312;2023-07-24T12:00:42;51.50;4.90
80695;DHT22;70059;42.702;23.312;2023-07-24T12:03:07;51.60;4.80
80695;DHT22;70059;42.702;23.312;2023-07-24T12:08:06;52.30;4.60
80695;DHT22;70059;42.702;23.312;2023-07-24T12:10:38;52.40;4.80
80695;DHT22;70059;42.702;23.312;2023-07-24T12:13:05;52.70;4.40
80695;DHT22;70059;42.702;23.312;2023-07-24T12:15:31;52.50;5.00
80695;DHT22;70059;42.702;23.312;2023-07-24T12:17:59;52.20;4.30
80695;DHT22;70059;42.702;23.312;2023-07-24T12:20:25;51.20;5.30
80695;DHT22;70059;42.702;23.312;2023-07-24T12:22:50;50.80;5.90
80695;DHT22;70059;42.702;23.312;2023-07-24T12:25:16;50.70;5.50
80695;DHT22;70059;42.702;23.312;2023-07-24T12:27:42;50.70;6.00
80695;DHT22;70059;42.702;23.312;2023-07-24T12:30:08;50.20;6.00
80695;DHT22;70059;42.702;23.312;2023-07-24T12:32:34;50.00;6.10
80695;DHT22;70059;42.702;23.312;2023-07-24T12:35:00;49.50;6.20
80695;DHT22;70059;42.702;23.312;2023-07-24T12:37:26;48.10;6.80
80695;DHT22;70059;42.702;23.312;2023-07-24T12:39:52;47.50;7.30
80695;DHT22;70059;42.702;23.312;2023-07-24T12:42:17;44.00;9.90
80695;DHT22;70059;42.702;23.312;2023-07-24T12:44:43;44.10;11.20
80695;DHT22;70059;42.702;23.312;2023-07-24T12:47:11;45.50;10.20
80695;DHT22;70059;42.702;23.312;2023-07-24T12:49:38;46.50;9.30
80695;DHT22;70059;42.702;23.312;2023-07-24T12:52:04;47.10;8.40
80695;DHT22;70059;42.702;23.312;2023-07-24T12:54:30;47.70;7.80
80695;DHT22;70059;42.702;23.312;2023-07-24T12:56:56;48.00;7.30
80695;DHT22;70059;42.702;23.312;2023-07-24T12:59:22;48.50;7.60
80695;DHT22;70059;42.702;23.312;2023-07-24T13:01:48;46.40;8.00
80695;DHT22;70059;42.702;23.312;2023-07-24T13:04:14;45.90;8.90
80695;DHT22;70059;42.702;23.312;2023-07-24T13:06:39;46.50;8.90
80695;DHT22;70059;42.702;23.312;2023-07-24T13:09:05;47.00;8.10
80695;DHT22;70059;42.702;23.312;2023-07-24T13:11:31;46.30;8.50
80695;DHT22;70059;42.702;23.312;2023-07-24T13:13:57;46.60;8.80
80695;DHT22;70059;42.702;23.312;2023-07-24T13:16:23;46.50;9.00
80695;DHT22;70059;42.702;23.312;2023-07-24T13:18:49;47.10;8.10
80695;DHT22;70059;42.702;23.312;2023-07-24T13:21:15;47.50;8.10
80695;DHT22;70059;42.702;23.312;2023-07-24T13:23:41;47.70;7.30
80695;DHT22;70059;42.702;23.312;2023-07-24T13:26:07;47.40;7.00
80695;DHT22;70059;42.702;23.312;2023-07-24T13:28:39;46.90;7.00
80695;DHT22;70059;42.702;23.312;2023-07-24T13:33:41;47.10;7.50
80695;DHT22;70059;42.702;23.312;2023-07-24T13:36:07;47.10;7.40
80695;DHT22;70059;42.702;23.312;2023-07-24T13:38:33;47.20;7.60
80695;DHT22;70059;42.702;23.312;2023-07-24T13:40:59;47.00;7.20
80695;DHT22;70059;42.702;23.312;2023-07-24T13:43:25;46.80;7.10
80695;DHT22;70059;42.702;23.312;2023-07-24T13:45:50;46.80;7.10
80695;DHT22;70059;42.702;23.312;2023-07-24T13:48:16;46.60;7.00
80695;DHT22;70059;42.702;23.312;2023-07-24T13:50:42;46.60;6.80
80695;DHT22;70059;42.702;23.312;2023-07-24T13:53:08;46.50;7.10
80695;DHT22;70059;42.702;23.312;2023-07-24T13:55:34;46.30;7.20
80695;DHT22;70059;42.702;23.312;2023-07-24T13:57:59;46.20;6.70
80695;DHT22;70059;42.702;23.312;2023-07-24T14:00:26;46.10;6.80
80695;DHT22;70059;42.702;23.312;2023-07-24T14:02:52;46.10;6.80
80695;DHT22;70059;42.702;23.312;2023-07-24T14:05:17;45.90;7.00
80695;DHT22;70059;42.702;23.312;2023-07-24T14:07:43;45.80;6.40
80695;DHT22;70059;42.702;23.312;2023-07-24T14:10:10;45.50;6.40
80695;DHT22;70059;42.702;23.312;2023-07-24T14:12:36;45.60;7.10
80695;DHT22;70059;42.702;23.312;2023-07-24T14:15:02;45.00;6.80
80695;DHT22;70059;42.702;23.312;2023-07-24T14:17:30;45.20;6.70
80695;DHT22;70059;42.702;23.312;2023-07-24T14:19:55;45.10;7.10
80695;DHT22;70059;42.702;23.312;2023-07-24T14:22:21;44.90;7.50
80695;DHT22;70059;42.702;23.312;2023-07-24T14:24:47;43.90;7.30
80695;DHT22;70059;42.702;23.312;2023-07-24T14:27:13;44.00;7.40
80695;DHT22;70059;42.702;23.312;2023-07-24T14:29:39;43.90;7.50
80695;DHT22;70059;42.702;23.312;2023-07-24T14:32:06;43.70;7.60
80695;DHT22;70059;42.702;23.312;2023-07-24T14:34:32;43.50;7.90
80695;DHT22;70059;42.702;23.312;2023-07-24T14:36:58;43.40;8.10
80695;DHT22;70059;42.702;23.312;2023-07-24T14:39:23;43.20;8.20
80695;DHT22;70059;42.702;23.312;2023-07-24T14:41:49;43.40;8.50
80695;DHT22;70059;42.702;23.312;2023-07-24T14:44:15;43.00;8.20
80695;DHT22;70059;42.702;23.312;2023-07-24T14:46:41;43.00;8.10
80695;DHT22;70059;42.702;23.312;2023-07-24T14:49:07;42.80;7.90
80695;DHT22;70059;42.702;23.312;2023-07-24T14:51:32;42.50;8.30
80695;DHT22;70059;42.702;23.312;2023-07-24T14:53:58;42.00;7.80
80695;DHT22;70059;42.702;23.312;2023-07-24T14:56:24;41.20;9.50
80695;DHT22;70059;42.702;23.312;2023-07-24T14:58:50;40.80;9.70
80695;DHT22;70059;42.702;23.312;2023-07-24T15:01:15;40.60;9.90
80695;DHT22;70059;42.702;23.312;2023-07-24T15:03:43;40.50;10.10
80695;DHT22;70059;42.702;23.312;2023-07-24T15:06:09;40.50;10.80
80695;DHT22;70059;42.702;23.312;2023-07-24T15:08:35;40.40;10.60
80695;DHT22;70059;42.702;23.312;2023-07-24T15:11:01;40.50;10.40
80695;DHT22;70059;42.702;23.312;2023-07-24T15:13:26;40.40;10.70
80695;DHT22;70059;42.702;23.312;2023-07-24T15:15:52;40.10;11.10
80695;DHT22;70059;42.702;23.312;2023-07-24T15:18:18;39.80;11.40
80695;DHT22;70059;42.702;23.312;2023-07-24T15:20:44;39.10;12.20
80695;DHT22;70059;42.702;23.312;2023-07-24T15:23:10;38.60;12.10
80695;DHT22;70059;42.702;23.312;2023-07-24T15:25:36;37.80;12.80
80695;DHT22;70059;42.702;23.312;2023-07-24T15:28:02;37.30;13.90